Terminal Aerodrome Forecast
Issued by NWS

Home | Current Version | Previous Version | Text Only | Print | Product List | Glossary On
Versions: 1 2 3 4 5 6 7 8 9 10 11 12 13 14 15 16 17 18 19 20 21
000
FTUS44 KLZK 300520
TAFBPK
TAF
KBPK 300520Z 3006/3106 23005KT P6SM FEW005 SCT040 BKN100
     FM300800 VRB03KT 5SM BR FEW050 BKN100
      TEMPO 3009/3013 2SM BR FEW008
     FM301400 25005KT P6SM VCSH SCT025 BKN050 BKN100
     FM301800 30006KT P6SM VCTS SCT040CB BKN250=

USA.gov is the U.S. government's official web portal to all federal, state and local government web resources and services.